Pagrindinis puslapis
METAR-TAF:

METAR-TAF

Oro uostai :

Salinasas, Ekvadoras

platuma: 02-12-18S, ilguma: 080-59-20W, Aukštis: 5 m

Dabartinis oras

Ataskaita buvo paskelbta 9 valandos ir 9 minutes, ne 01:00 UTC
Vėjas 10 kt iš Pietų/Pietvakarių
Temperatūra 20°C
Drėgmė 88%
Slėgis 1012 hPa
Matomumas 10 km arba daugiau
Apsiniaukę ne aukštis 1000 ft

METAR: SESA 210100Z 21010KT 9999 OVC010 20/18 Q1012 RMK A2989

Laikas: 05:09 (10:09 UTC)


TAF: trūkstamas

Orai ataskaitas ir orų prognozės (METAR, TAF).

turimą stotys yra geltonos ir raudonos taškus žemėlapyje.

Perkelti pele per norėdami pamatyti stoties vardą.

Tada spustelėkite, norėdami matyti oro stebėjimo ir prognozės.

Norėdami pakeisti žemėlapį: spustelėkite ant žalios mygtukų su juodo kryžiaus žemyn,; žalią mygtuką su brūkšneliu, jei norite nutolinti; arba žalių rodyklių gretimoms žemėlapius.


METAR-TAF: